createdAt,value
2023-03-05T00:03:36.208Z,2.15
2023-03-05T00:08:14.521Z,2.11
2023-03-05T00:20:35.703Z,2.08
2023-03-05T00:24:19.354Z,2.07
2023-03-05T00:27:43.118Z,2.10
2023-03-05T00:31:25.030Z,2.10
2023-03-05T00:35:09.180Z,2.11
2023-03-05T00:38:46.134Z,2.10
2023-03-05T00:42:22.398Z,2.13
2023-03-05T00:46:28.749Z,2.10
2023-03-05T00:58:31.796Z,2.10
2023-03-05T01:01:55.112Z,2.12
2023-03-05T01:05:22.425Z,2.12
2023-03-05T01:17:17.949Z,2.19
2023-03-05T01:20:57.428Z,2.17
2023-03-05T01:25:25.326Z,2.26
2023-03-05T01:29:08.734Z,2.36
2023-03-05T01:32:31.468Z,2.34
2023-03-05T01:36:18.499Z,2.33
2023-03-05T01:40:01.830Z,2.33
2023-03-05T01:43:37.091Z,2.37
2023-03-05T01:47:47.258Z,2.29
2023-03-05T01:55:29.081Z,2.18
2023-03-05T01:59:05.461Z,2.14
2023-03-05T02:11:09.126Z,2.03
2023-03-05T02:14:47.755Z,2.06
2023-03-05T02:18:38.241Z,2.10
2023-03-05T02:26:13.730Z,2.16
2023-03-05T02:34:07.050Z,2.18
2023-03-05T02:37:46.336Z,2.21
2023-03-05T02:41:29.071Z,2.19
2023-03-05T02:53:19.436Z,2.24
2023-03-05T03:05:29.389Z,2.18
2023-03-05T03:17:19.040Z,2.17
2023-03-05T03:29:07.076Z,2.27
2023-03-05T03:32:43.764Z,2.32
2023-03-05T03:36:29.274Z,2.30
2023-03-05T03:39:52.254Z,2.29
2023-03-05T03:43:31.822Z,2.18
2023-03-05T03:47:15.209Z,2.21
2023-03-05T03:50:44.893Z,2.14
2023-03-05T03:54:29.630Z,2.17
2023-03-05T03:58:05.333Z,2.15
2023-03-05T04:01:43.291Z,2.12
2023-03-05T04:09:15.114Z,2.16
2023-03-05T04:16:49.150Z,2.08
2023-03-05T04:20:33.024Z,2.08
2023-03-05T04:24:09.531Z,2.05
2023-03-05T04:27:47.771Z,2.01
2023-03-05T04:31:31.362Z,1.98
2023-03-05T04:34:54.478Z,2.05
2023-03-05T04:38:35.222Z,2.01
2023-03-05T04:50:50.769Z,1.98
2023-03-05T04:54:33.648Z,2.03
2023-03-05T04:58:10.638Z,2.13
2023-03-05T05:10:11.115Z,2.35
2023-03-05T05:13:59.951Z,2.42
2023-03-05T05:18:32.019Z,2.41
2023-03-05T05:30:32.974Z,2.62
2023-03-05T05:34:20.413Z,2.62
2023-03-05T05:42:12.300Z,2.72
2023-03-05T05:45:48.518Z,2.78
2023-03-05T05:49:24.375Z,2.66
2023-03-05T06:06:17.842Z,2.01
2023-03-05T06:18:19.375Z,2.27
2023-03-05T06:21:58.013Z,2.22
2023-03-05T06:29:38.560Z,2.23
2023-03-05T06:33:15.178Z,2.18
2023-03-05T06:36:55.278Z,2.16
2023-03-05T06:40:40.425Z,2.19
2023-03-05T06:44:19.580Z,2.08
2023-03-05T06:51:52.006Z,2.40
2023-03-05T06:59:21.757Z,2.40
2023-03-05T07:03:26.515Z,2.47
2023-03-05T07:07:02.227Z,2.75
2023-03-05T07:19:08.095Z,3.22
2023-03-05T07:22:42.896Z,3.04
2023-03-05T07:26:11.490Z,3.05
2023-03-05T07:30:15.827Z,3.08
2023-03-05T07:33:54.280Z,3.16
2023-03-05T07:41:27.689Z,3.09
2023-03-05T07:45:07.498Z,3.13
2023-03-05T07:49:42.826Z,3.30
2023-03-05T07:53:05.351Z,3.28
2023-03-05T07:56:43.331Z,3.32
2023-03-05T08:00:15.802Z,3.57
2023-03-05T08:03:22.735Z,3.45
2023-03-05T08:06:25.692Z,3.82
2023-03-05T08:10:09.978Z,3.99
2023-03-05T08:13:35.251Z,4.17
2023-03-05T08:25:30.210Z,3.93
2023-03-05T08:28:54.100Z,4.21
2023-03-05T08:31:57.052Z,4.18
2023-03-05T08:35:03.918Z,4.08
2023-03-05T08:38:59.640Z,4.42
2023-03-05T08:46:29.515Z,4.82
2023-03-05T08:49:33.343Z,4.68
2023-03-05T08:52:37.757Z,4.72
2023-03-05T08:55:43.834Z,4.84
2023-03-05T08:59:24.821Z,4.93
2023-03-05T09:02:47.398Z,4.86
2023-03-05T09:06:15.009Z,4.80
2023-03-05T09:09:22.916Z,4.33
2023-03-05T09:12:27.129Z,4.62
2023-03-05T09:16:09.283Z,4.82
2023-03-05T09:19:34.090Z,4.85
2023-03-05T09:23:11.154Z,5.09
2023-03-05T09:26:54.551Z,5.49
2023-03-05T09:29:57.636Z,5.54
2023-03-05T09:33:03.111Z,5.52
2023-03-05T09:36:30.891Z,5.43
2023-03-05T09:44:12.455Z,5.67
2023-03-05T09:47:15.806Z,5.55
2023-03-05T09:50:52.406Z,5.47
2023-03-05T09:54:13.802Z,5.46
2023-03-05T10:00:54.806Z,6.08
2023-03-05T10:04:52.708Z,5.89
2023-03-05T10:08:23.983Z,6.19
2023-03-05T10:16:03.915Z,6.45
2023-03-05T10:19:30.310Z,6.88
2023-03-05T10:22:53.928Z,6.65
2023-03-05T10:27:01.114Z,6.68
2023-03-05T10:30:42.014Z,6.68
2023-03-05T10:34:35.225Z,6.86
2023-03-05T10:38:17.249Z,5.84
2023-03-05T10:41:54.283Z,5.82
2023-03-05T10:45:38.774Z,6.39
2023-03-05T10:49:42.014Z,6.74
2023-03-05T10:53:19.931Z,6.99
2023-03-05T10:57:12.250Z,7.17
2023-03-05T11:00:41.414Z,7.16
2023-03-05T11:04:29.868Z,7.59
2023-03-05T11:07:47.604Z,7.61
2023-03-05T11:11:23.264Z,7.83
2023-03-05T11:14:49.078Z,6.90
2023-03-05T11:18:34.414Z,6.90
2023-03-05T11:22:15.987Z,6.72
2023-03-05T11:26:02.486Z,6.91
2023-03-05T11:29:33.808Z,6.96
2023-03-05T11:33:25.332Z,7.05
2023-03-05T11:37:10.441Z,6.70
2023-03-05T11:40:33.005Z,6.59
2023-03-05T11:43:55.927Z,6.58
2023-03-05T11:47:48.396Z,6.77
2023-03-05T11:51:01.047Z,6.82
2023-03-05T11:55:07.772Z,7.17
2023-03-05T11:59:03.787Z,7.67
2023-03-05T12:02:38.708Z,7.81
2023-03-05T12:06:38.984Z,7.10
2023-03-05T12:09:56.064Z,6.66
2023-03-05T12:13:28.732Z,6.33
2023-03-05T12:17:09.454Z,6.98
2023-03-05T12:20:40.654Z,7.62
2023-03-05T12:24:26.696Z,7.63
2023-03-05T12:27:52.771Z,7.97
2023-03-05T12:31:40.153Z,7.87
2023-03-05T12:35:35.966Z,8.00
2023-03-05T12:39:03.913Z,7.53
2023-03-05T12:42:33.478Z,7.38
2023-03-05T12:45:52.976Z,7.74
2023-03-05T12:49:28.477Z,8.40
2023-03-05T12:53:22.080Z,8.19
2023-03-05T12:57:04.833Z,8.12
2023-03-05T13:00:39.658Z,8.27
2023-03-05T13:04:29.395Z,8.14
2023-03-05T13:08:16.092Z,7.91
2023-03-05T13:11:36.616Z,7.11
2023-03-05T13:15:20.556Z,6.99
2023-03-05T13:18:52.805Z,6.86
2023-03-05T13:22:28.495Z,6.63
2023-03-05T13:25:58.116Z,6.68
2023-03-05T13:29:32.279Z,6.52
2023-03-05T13:32:52.137Z,6.60
2023-03-05T13:36:17.780Z,6.57
2023-03-05T13:39:44.501Z,6.57
2023-03-05T13:43:15.679Z,6.30
2023-03-05T13:46:54.113Z,6.45
2023-03-05T13:50:40.790Z,6.46
2023-03-05T13:54:11.064Z,6.50
2023-03-05T13:57:44.553Z,6.57
2023-03-05T14:01:28.474Z,6.49
2023-03-05T14:04:58.396Z,6.73
2023-03-05T14:08:32.471Z,6.73
2023-03-05T14:12:22.210Z,7.12
2023-03-05T14:16:12.818Z,6.62
2023-03-05T14:20:08.544Z,6.49
2023-03-05T14:23:34.293Z,6.40
2023-03-05T14:27:13.471Z,6.24
2023-03-05T14:30:49.037Z,6.32
2023-03-05T14:34:42.471Z,6.08
2023-03-05T14:38:30.547Z,6.28
2023-03-05T14:42:33.683Z,6.31
2023-03-05T14:45:58.140Z,6.47
2023-03-05T14:49:40.937Z,6.00
2023-03-05T14:53:31.302Z,6.01
2023-03-05T14:56:53.188Z,6.16
2023-03-05T15:00:37.599Z,5.89
2023-03-05T15:04:19.326Z,6.20
2023-03-05T15:07:52.107Z,6.23
2023-03-05T15:11:11.344Z,5.99
2023-03-05T15:14:31.160Z,5.89
2023-03-05T15:17:58.393Z,5.92
2023-03-05T15:21:15.712Z,5.76
2023-03-05T15:24:50.261Z,5.75
2023-03-05T15:28:18.985Z,5.73
2023-03-05T15:31:47.419Z,5.66
2023-03-05T15:35:25.160Z,5.61
2023-03-05T15:38:54.583Z,5.45
2023-03-05T15:42:34.138Z,5.60
2023-03-05T15:46:12.819Z,5.59
2023-03-05T15:49:29.279Z,5.67
2023-03-05T15:53:03.210Z,5.34
2023-03-05T15:56:20.208Z,5.23
2023-03-05T15:59:51.019Z,5.21
2023-03-05T16:03:17.921Z,5.19
2023-03-05T16:06:52.438Z,5.12
2023-03-05T16:10:17.945Z,4.88
2023-03-05T16:13:37.661Z,4.77
2023-03-05T16:17:11.438Z,4.54
2023-03-05T16:20:30.870Z,4.38
2023-03-05T16:24:00.268Z,4.37
2023-03-05T16:27:34.933Z,4.29
2023-03-05T16:31:11.809Z,4.24
2023-03-05T16:34:44.344Z,4.14
2023-03-05T16:38:23.402Z,4.08
2023-03-05T16:41:52.767Z,4.09
2023-03-05T16:45:27.781Z,3.91
2023-03-05T16:48:54.507Z,3.92
2023-03-05T16:52:24.572Z,3.73
2023-03-05T16:55:57.873Z,3.63
2023-03-05T16:59:30.158Z,3.70
2023-03-05T17:02:47.474Z,3.53
2023-03-05T17:06:25.720Z,3.57
2023-03-05T17:10:10.591Z,3.44
2023-03-05T17:13:49.920Z,3.34
2023-03-05T17:17:24.346Z,3.36
2023-03-05T17:21:02.319Z,3.34
2023-03-05T17:24:28.906Z,3.30
2023-03-05T17:28:00.873Z,3.17
2023-03-05T17:31:23.153Z,3.19
2023-03-05T17:34:56.978Z,3.13
2023-03-05T17:38:33.782Z,3.10
2023-03-05T17:42:10.385Z,2.95
2023-03-05T17:45:41.640Z,2.91
2023-03-05T17:48:59.295Z,2.86
2023-03-05T17:52:29.294Z,2.84
2023-03-05T17:55:55.773Z,2.93
2023-03-05T17:59:20.090Z,2.86
2023-03-05T18:02:55.265Z,2.88
2023-03-05T18:06:39.881Z,2.86
2023-03-05T18:09:59.593Z,2.89
2023-03-05T18:13:30.343Z,2.87
2023-03-05T18:17:09.186Z,2.82
2023-03-05T18:20:36.398Z,2.80
2023-03-05T18:23:58.717Z,2.74
2023-03-05T18:27:28.931Z,2.74
2023-03-05T18:30:53.514Z,2.79
2023-03-05T18:34:13.163Z,2.79
2023-03-05T18:37:47.379Z,2.69
2023-03-05T18:40:52.618Z,2.72
2023-03-05T18:44:19.756Z,2.77
2023-03-05T18:47:56.945Z,2.81
2023-03-05T18:51:53.575Z,2.80
2023-03-05T18:55:25.559Z,2.82
2023-03-05T19:03:11.908Z,2.70
2023-03-05T19:10:35.502Z,2.62
2023-03-05T19:22:36.485Z,2.47
2023-03-05T19:26:23.487Z,2.42
2023-03-05T19:34:03.826Z,2.26
2023-03-05T19:41:34.708Z,2.26
2023-03-05T19:45:00.031Z,2.21
2023-03-05T19:48:45.945Z,2.22
2023-03-05T19:51:51.604Z,2.15
2023-03-05T19:55:14.856Z,2.11
2023-03-05T19:58:50.582Z,2.05
2023-03-05T20:02:32.731Z,2.00
2023-03-05T20:07:01.356Z,1.97
2023-03-05T20:10:24.731Z,1.96
2023-03-05T20:13:54.130Z,1.97
2023-03-05T20:16:58.591Z,1.92
2023-03-05T20:20:29.264Z,1.93
2023-03-05T20:23:32.349Z,1.92
2023-03-05T20:27:08.493Z,1.92
2023-03-05T20:30:41.666Z,1.92
2023-03-05T20:34:31.462Z,1.89
2023-03-05T20:42:08.112Z,1.93
2023-03-05T20:45:42.312Z,1.92
2023-03-05T20:49:05.268Z,1.89
2023-03-05T20:52:48.295Z,1.95
2023-03-05T20:56:27.125Z,1.98
2023-03-05T21:04:03.610Z,1.94
2023-03-05T21:08:06.470Z,1.94
2023-03-05T21:11:42.116Z,1.94
2023-03-05T21:15:24.568Z,1.97
2023-03-05T21:19:28.093Z,2.01
2023-03-05T21:23:29.758Z,1.95
2023-03-05T21:35:23.142Z,1.82
2023-03-05T21:39:05.951Z,1.89
2023-03-05T21:42:42.570Z,1.88
2023-03-05T21:46:27.037Z,1.87
2023-03-05T21:49:31.961Z,1.92
2023-03-05T21:53:22.749Z,1.98
2023-03-05T21:56:45.894Z,1.98
2023-03-05T22:00:43.913Z,1.87
2023-03-05T22:04:42.281Z,2.00
2023-03-05T22:08:46.114Z,2.09
2023-03-05T22:12:57.610Z,1.99
2023-03-05T22:16:44.463Z,2.02
2023-03-05T22:28:46.727Z,1.97
2023-03-05T22:32:36.083Z,1.94
2023-03-05T22:36:02.272Z,2.00
2023-03-05T22:47:55.147Z,1.88
2023-03-05T22:51:23.999Z,1.86
2023-03-05T22:54:59.233Z,1.89
2023-03-05T22:58:45.768Z,1.93
2023-03-05T23:02:09.719Z,1.87
2023-03-05T23:06:13.610Z,1.93
2023-03-05T23:18:06.427Z,1.89
2023-03-05T23:21:52.064Z,1.92
2023-03-05T23:24:57.303Z,1.96
2023-03-05T23:28:33.286Z,1.92
2023-03-05T23:32:11.903Z,1.92
2023-03-05T23:39:40.113Z,1.91
2023-03-05T23:43:21.355Z,1.97
2023-03-05T23:47:04.340Z,1.94
2023-03-05T23:50:43.110Z,1.96
2023-03-05T23:55:07.261Z,1.98
